sensor_id;sensor_type;location;lat;lon;timestamp;pressure;altitude;pressure_sealevel;temperature;humidity
60307;BME280;46155;52.364;6.580;2023-07-20T03:02:29;101155.47;;;15.63;100.00
60307;BME280;46155;52.364;6.580;2023-07-20T03:04:55;101150.88;;;15.59;100.00
60307;BME280;46155;52.364;6.580;2023-07-20T03:07:22;101159.50;;;15.55;100.00
60307;BME280;46155;52.364;6.580;2023-07-20T03:09:47;101162.00;;;15.52;100.00
60307;BME280;46155;52.364;6.580;2023-07-20T03:12:13;101164.66;;;15.52;100.00
60307;BME280;46155;52.364;6.580;2023-07-20T03:14:38;101160.88;;;15.46;100.00
60307;BME280;46155;52.364;6.580;2023-07-20T03:17:04;101160.47;;;15.37;100.00
60307;BME280;46155;52.364;6.580;2023-07-20T03:19:29;101153.91;;;15.29;100.00
60307;BME280;46155;52.364;6.580;2023-07-20T03:21:55;101161.97;;;15.32;100.00
60307;BME280;46155;52.364;6.580;2023-07-20T03:24:20;101157.63;;;15.32;100.00
60307;BME280;46155;52.364;6.580;2023-07-20T03:26:46;101162.91;;;15.32;100.00
60307;BME280;46155;52.364;6.580;2023-07-20T03:29:11;101169.22;;;15.36;100.00
60307;BME280;46155;52.364;6.580;2023-07-20T03:31:36;101166.50;;;15.35;100.00
60307;BME280;46155;52.364;6.580;2023-07-20T03:34:02;101167.50;;;15.37;100.00
60307;BME280;46155;52.364;6.580;2023-07-20T03:36:27;101163.03;;;15.36;100.00
60307;BME280;46155;52.364;6.580;2023-07-20T03:38:53;101168.25;;;15.34;100.00
60307;BME280;46155;52.364;6.580;2023-07-20T03:41:18;101170.66;;;15.29;100.00
60307;BME280;46155;52.364;6.580;2023-07-20T03:43:45;101163.44;;;15.25;100.00
60307;BME280;46155;52.364;6.580;2023-07-20T03:46:10;101168.50;;;15.21;100.00
60307;BME280;46155;52.364;6.580;2023-07-20T03:48:36;101168.34;;;15.18;100.00
60307;BME280;46155;52.364;6.580;2023-07-20T03:51:01;101172.69;;;15.15;100.00
60307;BME280;46155;52.364;6.580;2023-07-20T03:53:26;101172.44;;;15.11;100.00
60307;BME280;46155;52.364;6.580;2023-07-20T03:55:52;101172.16;;;15.05;100.00
60307;BME280;46155;52.364;6.580;2023-07-20T03:58:19;101186.34;;;15.07;100.00
60307;BME280;46155;52.364;6.580;2023-07-20T04:00:49;101171.41;;;15.07;100.00
60307;BME280;46155;52.364;6.580;2023-07-20T04:03:18;101186.34;;;15.07;100.00
60307;BME280;46155;52.364;6.580;2023-07-20T04:05:44;101182.72;;;15.05;100.00
60307;BME280;46155;52.364;6.580;2023-07-20T04:08:10;101182.59;;;15.02;100.00
60307;BME280;46155;52.364;6.580;2023-07-20T04:10:36;101182.59;;;15.02;100.00
60307;BME280;46155;52.364;6.580;2023-07-20T04:13:02;101181.38;;;14.95;100.00
60307;BME280;46155;52.364;6.580;2023-07-20T04:15:27;101184.69;;;14.91;100.00
60307;BME280;46155;52.364;6.580;2023-07-20T04:17:53;101178.19;;;14.84;100.00
60307;BME280;46155;52.364;6.580;2023-07-20T04:20:18;101177.00;;;14.77;100.00
60307;BME280;46155;52.364;6.580;2023-07-20T04:22:44;101184.84;;;14.76;100.00
60307;BME280;46155;52.364;6.580;2023-07-20T04:25:09;101185.75;;;14.76;100.00
60307;BME280;46155;52.364;6.580;2023-07-20T04:27:36;101179.56;;;14.76;100.00
60307;BME280;46155;52.364;6.580;2023-07-20T04:30:01;101184.06;;;14.78;100.00
60307;BME280;46155;52.364;6.580;2023-07-20T04:32:27;101187.72;;;14.80;100.00
60307;BME280;46155;52.364;6.580;2023-07-20T04:34:52;101181.44;;;14.78;100.00
60307;BME280;46155;52.364;6.580;2023-07-20T04:37:18;101185.16;;;14.82;100.00
60307;BME280;46155;52.364;6.580;2023-07-20T04:39:43;101186.81;;;14.80;100.00
60307;BME280;46155;52.364;6.580;2023-07-20T04:42:08;101193.00;;;14.80;100.00
60307;BME280;46155;52.364;6.580;2023-07-20T04:44:34;101194.81;;;14.82;100.00
60307;BME280;46155;52.364;6.580;2023-07-20T04:46:59;101189.75;;;14.86;100.00
60307;BME280;46155;52.364;6.580;2023-07-20T04:49:24;101199.66;;;14.90;100.00
60307;BME280;46155;52.364;6.580;2023-07-20T04:51:51;101195.13;;;14.88;100.00
60307;BME280;46155;52.364;6.580;2023-07-20T04:54:16;101199.66;;;14.90;100.00
60307;BME280;46155;52.364;6.580;2023-07-20T04:56:42;101205.84;;;14.91;100.00
60307;BME280;46155;52.364;6.580;2023-07-20T04:59:07;101203.19;;;14.91;100.00
60307;BME280;46155;52.364;6.580;2023-07-20T05:01:32;101199.66;;;14.90;100.00
60307;BME280;46155;52.364;6.580;2023-07-20T05:03:58;101206.84;;;14.93;100.00
60307;BME280;46155;52.364;6.580;2023-07-20T05:06:24;101214.78;;;14.93;100.00
60307;BME280;46155;52.364;6.580;2023-07-20T05:08:49;101206.88;;;15.12;100.00
60307;BME280;46155;52.364;6.580;2023-07-20T05:11:15;101201.97;;;15.20;100.00
60307;BME280;46155;52.364;6.580;2023-07-20T05:13:41;101209.16;;;15.23;100.00
60307;BME280;46155;52.364;6.580;2023-07-20T05:16:06;101206.38;;;15.20;100.00
60307;BME280;46155;52.364;6.580;2023-07-20T05:18:31;101210.06;;;15.23;100.00
60307;BME280;46155;52.364;6.580;2023-07-20T05:20:57;101208.31;;;15.24;100.00
60307;BME280;46155;52.364;6.580;2023-07-20T05:23:22;101213.84;;;15.28;100.00
60307;BME280;46155;52.364;6.580;2023-07-20T05:25:57;101213.09;;;15.31;100.00
60307;BME280;46155;52.364;6.580;2023-07-20T05:28:26;101214.75;;;15.29;100.00
60307;BME280;46155;52.364;6.580;2023-07-20T05:30:52;101210.97;;;15.24;100.00
60307;BME280;46155;52.364;6.580;2023-07-20T05:33:21;101212.78;;;15.25;100.00
60307;BME280;46155;52.364;6.580;2023-07-20T05:35:47;101218.06;;;15.25;100.00
60307;BME280;46155;52.364;6.580;2023-07-20T05:38:13;101224.44;;;15.28;100.00
60307;BME280;46155;52.364;6.580;2023-07-20T05:40:40;101228.50;;;15.22;100.00
60307;BME280;46155;52.364;6.580;2023-07-20T05:43:06;101218.69;;;15.19;100.00
60307;BME280;46155;52.364;6.580;2023-07-20T05:45:31;101222.06;;;15.17;100.00
60307;BME280;46155;52.364;6.580;2023-07-20T05:47:56;101229.41;;;15.22;100.00
60307;BME280;46155;52.364;6.580;2023-07-20T05:50:22;101223.00;;;15.17;100.00
60307;BME280;46155;52.364;6.580;2023-07-20T05:52:47;101228.50;;;15.22;100.00
60307;BME280;46155;52.364;6.580;2023-07-20T05:55:13;101223.97;;;15.19;100.00
60307;BME280;46155;52.364;6.580;2023-07-20T05:57:38;101237.88;;;15.33;100.00
60307;BME280;46155;52.364;6.580;2023-07-20T06:00:07;101225.22;;;15.45;100.00
60307;BME280;46155;52.364;6.580;2023-07-20T06:02:33;101236.75;;;15.65;100.00
60307;BME280;46155;52.364;6.580;2023-07-20T06:04:58;101235.00;;;15.84;100.00
60307;BME280;46155;52.364;6.580;2023-07-20T06:07:24;101237.72;;;16.05;100.00
60307;BME280;46155;52.364;6.580;2023-07-20T06:09:49;101246.50;;;16.24;100.00
60307;BME280;46155;52.364;6.580;2023-07-20T06:12:14;101240.50;;;16.28;100.00
60307;BME280;46155;52.364;6.580;2023-07-20T06:14:40;101244.25;;;16.33;100.00
60307;BME280;46155;52.364;6.580;2023-07-20T06:17:05;101255.47;;;16.27;100.00
60307;BME280;46155;52.364;6.580;2023-07-20T06:19:31;101249.66;;;16.15;100.00
60307;BME280;46155;52.364;6.580;2023-07-20T06:21:56;101253.63;;;16.25;100.00
60307;BME280;46155;52.364;6.580;2023-07-20T06:24:21;101252.63;;;16.23;100.00
60307;BME280;46155;52.364;6.580;2023-07-20T06:26:47;101255.63;;;16.30;100.00
60307;BME280;46155;52.364;6.580;2023-07-20T06:29:12;101251.91;;;16.46;100.00
60307;BME280;46155;52.364;6.580;2023-07-20T06:31:38;101260.31;;;16.36;100.00
60307;BME280;46155;52.364;6.580;2023-07-20T06:34:03;101256.78;;;16.37;100.00
60307;BME280;46155;52.364;6.580;2023-07-20T06:36:29;101258.03;;;16.45;100.00
60307;BME280;46155;52.364;6.580;2023-07-20T06:38:55;101260.41;;;16.59;100.00
60307;BME280;46155;52.364;6.580;2023-07-20T06:41:21;101252.81;;;16.47;100.00
60307;BME280;46155;52.364;6.580;2023-07-20T06:43:47;101247.38;;;16.44;100.00
60307;BME280;46155;52.364;6.580;2023-07-20T06:46:12;101250.72;;;16.40;100.00
60307;BME280;46155;52.364;6.580;2023-07-20T06:48:37;101250.63;;;16.58;100.00
60307;BME280;46155;52.364;6.580;2023-07-20T06:51:03;101247.81;;;16.74;100.00
60307;BME280;46155;52.364;6.580;2023-07-20T06:53:29;101257.13;;;16.85;100.00
60307;BME280;46155;52.364;6.580;2023-07-20T06:55:54;101253.13;;;16.95;100.00
60307;BME280;46155;52.364;6.580;2023-07-20T06:58:23;101238.03;;;16.93;100.00
60307;BME280;46155;52.364;6.580;2023-07-20T07:00:48;101256.25;;;17.06;100.00
60307;BME280;46155;52.364;6.580;2023-07-20T07:03:13;101249.41;;;17.11;100.00
60307;BME280;46155;52.364;6.580;2023-07-20T07:05:39;101262.69;;;17.34;100.00
60307;BME280;46155;52.364;6.580;2023-07-20T07:08:04;101262.16;;;17.43;100.00
60307;BME280;46155;52.364;6.580;2023-07-20T07:10:30;101262.28;;;17.46;100.00
60307;BME280;46155;52.364;6.580;2023-07-20T07:12:55;101269.06;;;17.39;100.00
60307;BME280;46155;52.364;6.580;2023-07-20T07:15:21;101270.28;;;17.47;100.00
60307;BME280;46155;52.364;6.580;2023-07-20T07:17:46;101269.50;;;17.50;100.00
60307;BME280;46155;52.364;6.580;2023-07-20T07:20:11;101278.97;;;17.66;100.00
60307;BME280;46155;52.364;6.580;2023-07-20T07:22:37;101276.34;;;17.66;94.52
60307;BME280;46155;52.364;6.580;2023-07-20T07:25:03;101267.16;;;17.58;95.80
60307;BME280;46155;52.364;6.580;2023-07-20T07:27:29;101274.44;;;17.41;94.42
60307;BME280;46155;52.364;6.580;2023-07-20T07:29:54;101270.28;;;17.47;99.49
60307;BME280;46155;52.364;6.580;2023-07-20T07:32:20;101279.59;;;17.59;98.26
60307;BME280;46155;52.364;6.580;2023-07-20T07:34:46;101278.38;;;17.73;97.01
60307;BME280;46155;52.364;6.580;2023-07-20T07:37:12;101283.81;;;17.76;92.74
60307;BME280;46155;52.364;6.580;2023-07-20T07:39:38;101294.19;;;17.70;92.00
60307;BME280;46155;52.364;6.580;2023-07-20T07:42:03;101283.47;;;17.67;90.36
60307;BME280;46155;52.364;6.580;2023-07-20T07:44:29;101290.69;;;17.92;91.69
60307;BME280;46155;52.364;6.580;2023-07-20T07:46:54;101283.22;;;17.61;91.82
60307;BME280;46155;52.364;6.580;2023-07-20T07:49:19;101295.91;;;17.68;90.98
60307;BME280;46155;52.364;6.580;2023-07-20T07:51:45;101293.69;;;17.80;91.66
60307;BME280;46155;52.364;6.580;2023-07-20T07:54:11;101300.84;;;17.81;89.67
60307;BME280;46155;52.364;6.580;2023-07-20T07:56:36;101284.81;;;18.01;92.66
60307;BME280;46155;52.364;6.580;2023-07-20T07:59:02;101298.66;;;18.16;90.63
60307;BME280;46155;52.364;6.580;2023-07-20T08:01:28;101292.94;;;18.30;87.88
60307;BME280;46155;52.364;6.580;2023-07-20T08:03:53;101289.03;;;18.20;84.94
60307;BME280;46155;52.364;6.580;2023-07-20T08:06:18;101290.88;;;18.21;85.80
60307;BME280;46155;52.364;6.580;2023-07-20T08:08:44;101289.00;;;18.18;87.89
60307;BME280;46155;52.364;6.580;2023-07-20T08:11:09;101287.31;;;18.20;83.63
60307;BME280;46155;52.364;6.580;2023-07-20T08:13:36;101301.34;;;18.40;83.96
60307;BME280;46155;52.364;6.580;2023-07-20T08:16:01;101303.63;;;18.55;83.53
60307;BME280;46155;52.364;6.580;2023-07-20T08:18:30;101301.34;;;18.40;82.76
60307;BME280;46155;52.364;6.580;2023-07-20T08:20:56;101303.63;;;18.31;83.66
60307;BME280;46155;52.364;6.580;2023-07-20T08:23:21;101310.94;;;18.37;84.84
60307;BME280;46155;52.364;6.580;2023-07-20T08:25:46;101308.00;;;18.29;79.69
60307;BME280;46155;52.364;6.580;2023-07-20T08:28:14;101308.91;;;18.30;79.32
60307;BME280;46155;52.364;6.580;2023-07-20T08:30:43;101311.06;;;18.64;85.21
60307;BME280;46155;52.364;6.580;2023-07-20T08:33:10;101308.03;;;18.79;78.35
60307;BME280;46155;52.364;6.580;2023-07-20T08:35:36;101309.38;;;18.92;79.58
60307;BME280;46155;52.364;6.580;2023-07-20T08:38:01;101301.69;;;19.00;78.39
60307;BME280;46155;52.364;6.580;2023-07-20T08:40:27;101305.69;;;18.87;77.86
60307;BME280;46155;52.364;6.580;2023-07-20T08:42:54;101299.03;;;18.75;76.60
60307;BME280;46155;52.364;6.580;2023-07-20T08:45:22;101316.44;;;18.66;76.84
60307;BME280;46155;52.364;6.580;2023-07-20T08:47:48;101295.84;;;18.86;80.94
60307;BME280;46155;52.364;6.580;2023-07-20T08:50:14;101305.56;;;19.09;76.81
60307;BME280;46155;52.364;6.580;2023-07-20T08:52:41;101299.94;;;19.27;75.83
60307;BME280;46155;52.364;6.580;2023-07-20T08:55:06;101309.09;;;19.36;73.37
60307;BME280;46155;52.364;6.580;2023-07-20T08:57:33;101315.50;;;19.15;70.99
60307;BME280;46155;52.364;6.580;2023-07-20T09:00:00;101308.22;;;19.09;73.67
60307;BME280;46155;52.364;6.580;2023-07-20T09:02:30;101305.75;;;19.16;77.23
60307;BME280;46155;52.364;6.580;2023-07-20T09:04:58;101301.44;;;19.19;72.49
60307;BME280;46155;52.364;6.580;2023-07-20T09:07:23;101307.50;;;19.41;78.63
60307;BME280;46155;52.364;6.580;2023-07-20T09:09:49;101300.66;;;19.78;82.11
60307;BME280;46155;52.364;6.580;2023-07-20T09:12:15;101292.75;;;20.10;77.36
60307;BME280;46155;52.364;6.580;2023-07-20T09:14:43;101308.19;;;20.20;80.06
60307;BME280;46155;52.364;6.580;2023-07-20T09:17:13;101312.25;;;20.38;77.82
60307;BME280;46155;52.364;6.580;2023-07-20T09:19:39;101307.47;;;20.26;71.86
60307;BME280;46155;52.364;6.580;2023-07-20T09:22:10;101305.47;;;20.19;69.86
60307;BME280;46155;52.364;6.580;2023-07-20T09:24:35;101298.50;;;20.24;71.63
60307;BME280;46155;52.364;6.580;2023-07-20T09:27:01;101302.19;;;20.27;70.56
60307;BME280;46155;52.364;6.580;2023-07-20T09:29:29;101307.19;;;20.47;72.59
60307;BME280;46155;52.364;6.580;2023-07-20T09:32:18;101291.06;;;20.74;75.33
60307;BME280;46155;52.364;6.580;2023-07-20T09:34:44;101289.75;;;20.93;72.11
60307;BME280;46155;52.364;6.580;2023-07-20T09:37:10;101297.63;;;20.87;71.47
60307;BME280;46155;52.364;6.580;2023-07-20T09:39:45;101288.13;;;20.98;73.90
60307;BME280;46155;52.364;6.580;2023-07-20T09:42:11;101297.56;;;21.21;72.47
60307;BME280;46155;52.364;6.580;2023-07-20T09:44:38;101298.41;;;21.18;66.50
60307;BME280;46155;52.364;6.580;2023-07-20T09:47:04;101294.47;;;21.39;69.00
60307;BME280;46155;52.364;6.580;2023-07-20T09:49:29;101292.03;;;21.48;67.89
60307;BME280;46155;52.364;6.580;2023-07-20T09:51:57;101295.09;;;21.63;69.59
60307;BME280;46155;52.364;6.580;2023-07-20T09:54:23;101291.72;;;21.72;68.31
60307;BME280;46155;52.364;6.580;2023-07-20T09:56:50;101288.25;;;21.40;59.25
60307;BME280;46155;52.364;6.580;2023-07-20T09:59:17;101293.41;;;21.32;66.28
60307;BME280;46155;52.364;6.580;2023-07-20T10:01:43;101286.84;;;21.54;65.04
60307;BME280;46155;52.364;6.580;2023-07-20T10:04:11;101292.78;;;21.79;67.87
60307;BME280;46155;52.364;6.580;2023-07-20T10:06:42;101301.06;;;21.93;69.32
60307;BME280;46155;52.364;6.580;2023-07-20T10:09:07;101302.75;;;21.88;67.76
60307;BME280;46155;52.364;6.580;2023-07-20T10:11:36;101292.31;;;21.60;62.00
60307;BME280;46155;52.364;6.580;2023-07-20T10:14:04;101289.56;;;21.56;68.45
60307;BME280;46155;52.364;6.580;2023-07-20T10:16:34;101292.41;;;21.63;71.70
60307;BME280;46155;52.364;6.580;2023-07-20T10:19:10;101282.31;;;21.52;71.09
60307;BME280;46155;52.364;6.580;2023-07-20T10:21:42;101296.28;;;21.05;62.30
60307;BME280;46155;52.364;6.580;2023-07-20T10:24:13;101292.06;;;20.79;62.12
60307;BME280;46155;52.364;6.580;2023-07-20T10:26:39;101290.31;;;20.80;63.48
60307;BME280;46155;52.364;6.580;2023-07-20T10:29:04;101276.41;;;20.93;63.87
60307;BME280;46155;52.364;6.580;2023-07-20T10:31:31;101290.06;;;21.04;60.21
60307;BME280;46155;52.364;6.580;2023-07-20T10:33:57;101289.97;;;20.68;62.34
60307;BME280;46155;52.364;6.580;2023-07-20T10:36:27;101296.31;;;20.41;65.93
60307;BME280;46155;52.364;6.580;2023-07-20T10:38:56;101303.75;;;20.21;72.29
60307;BME280;46155;52.364;6.580;2023-07-20T10:41:37;101308.63;;;19.76;74.72
60307;BME280;46155;52.364;6.580;2023-07-20T10:44:07;101306.50;;;19.39;75.61
60307;BME280;46155;52.364;6.580;2023-07-20T10:49:07;101319.41;;;18.75;77.02
60307;BME280;46155;52.364;6.580;2023-07-20T10:51:43;101315.63;;;18.44;78.69
60307;BME280;46155;52.364;6.580;2023-07-20T10:57:33;101305.53;;;17.88;84.11
60307;BME280;46155;52.364;6.580;2023-07-20T11:00:08;101293.53;;;17.76;86.98
60307;BME280;46155;52.364;6.580;2023-07-20T11:02:47;101292.31;;;17.67;86.73
60307;BME280;46155;52.364;6.580;2023-07-20T11:05:38;101296.00;;;17.71;87.85
60307;BME280;46155;52.364;6.580;2023-07-20T11:08:09;101291.75;;;17.76;88.35
60307;BME280;46155;52.364;6.580;2023-07-20T11:10:35;101281.25;;;17.78;86.18
60307;BME280;46155;52.364;6.580;2023-07-20T11:13:19;101292.25;;;17.88;85.91
60307;BME280;46155;52.364;6.580;2023-07-20T11:15:46;101288.75;;;17.89;85.44
60307;BME280;46155;52.364;6.580;2023-07-20T11:18:13;101289.25;;;17.79;87.18
60307;BME280;46155;52.364;6.580;2023-07-20T11:20:38;101286.84;;;17.85;88.23
60307;BME280;46155;52.364;6.580;2023-07-20T11:23:03;101287.28;;;17.96;88.23
60307;BME280;46155;52.364;6.580;2023-07-20T11:25:41;101294.25;;;18.17;88.05
60307;BME280;46155;52.364;6.580;2023-07-20T11:28:07;101287.19;;;18.17;86.97
60307;BME280;46155;52.364;6.580;2023-07-20T11:30:34;101293.09;;;18.10;87.09
60307;BME280;46155;52.364;6.580;2023-07-20T11:32:59;101293.00;;;18.07;88.86
60307;BME280;46155;52.364;6.580;2023-07-20T11:35:25;101286.16;;;18.14;88.90
60307;BME280;46155;52.364;6.580;2023-07-20T11:37:50;101286.91;;;18.34;87.99
60307;BME280;46155;52.364;6.580;2023-07-20T11:40:16;101284.03;;;18.52;86.01
60307;BME280;46155;52.364;6.580;2023-07-20T11:42:41;101283.19;;;18.53;85.26
60307;BME280;46155;52.364;6.580;2023-07-20T11:45:07;101281.84;;;18.66;83.95
60307;BME280;46155;52.364;6.580;2023-07-20T11:47:32;101280.72;;;18.59;81.93
60307;BME280;46155;52.364;6.580;2023-07-20T11:50:03;101278.50;;;18.46;81.02
60307;BME280;46155;52.364;6.580;2023-07-20T11:52:28;101268.75;;;18.46;82.54
60307;BME280;46155;52.364;6.580;2023-07-20T11:54:54;101272.91;;;18.64;79.87
60307;BME280;46155;52.364;6.580;2023-07-20T11:57:21;101270.13;;;18.86;82.91
60307;BME280;46155;52.364;6.580;2023-07-20T12:00:00;101262.16;;;19.12;81.66
60307;BME280;46155;52.364;6.580;2023-07-20T12:02:29;101255.03;;;19.38;79.77
60307;BME280;46155;52.364;6.580;2023-07-20T12:04:54;101252.34;;;19.66;75.95
60307;BME280;46155;52.364;6.580;2023-07-20T12:07:20;101257.91;;;19.73;74.57
60307;BME280;46155;52.364;6.580;2023-07-20T12:10:11;101244.94;;;19.84;72.29
60307;BME280;46155;52.364;6.580;2023-07-20T12:12:41;101248.38;;;19.53;71.02
60307;BME280;46155;52.364;6.580;2023-07-20T12:17:42;101243.63;;;19.71;73.81
60307;BME280;46155;52.364;6.580;2023-07-20T12:20:08;101248.91;;;19.99;73.85
60307;BME280;46155;52.364;6.580;2023-07-20T12:22:39;101256.53;;;20.17;70.02
60307;BME280;46155;52.364;6.580;2023-07-20T12:25:08;101242.84;;;20.35;70.68
60307;BME280;46155;52.364;6.580;2023-07-20T12:27:36;101239.03;;;20.58;72.89
60307;BME280;46155;52.364;6.580;2023-07-20T12:30:02;101241.34;;;20.78;73.12
60307;BME280;46155;52.364;6.580;2023-07-20T12:32:29;101245.00;;;20.81;70.04
60307;BME280;46155;52.364;6.580;2023-07-20T12:34:54;101236.38;;;20.58;70.06
60307;BME280;46155;52.364;6.580;2023-07-20T12:37:20;101233.13;;;20.38;67.14
60307;BME280;46155;52.364;6.580;2023-07-20T12:39:45;101240.34;;;20.42;68.45
60307;BME280;46155;52.364;6.580;2023-07-20T12:42:12;101236.06;;;20.47;67.41
60307;BME280;46155;52.364;6.580;2023-07-20T12:44:40;101241.28;;;20.43;66.11
60307;BME280;46155;52.364;6.580;2023-07-20T12:47:05;101239.13;;;20.29;68.69
60307;BME280;46155;52.364;6.580;2023-07-20T12:49:31;101235.75;;;20.37;68.56
60307;BME280;46155;52.364;6.580;2023-07-20T12:51:56;101241.00;;;20.34;67.10
60307;BME280;46155;52.364;6.580;2023-07-20T12:54:21;101233.81;;;20.63;67.65
60307;BME280;46155;52.364;6.580;2023-07-20T12:56:47;101236.31;;;20.90;69.62
60307;BME280;46155;52.364;6.580;2023-07-20T12:59:12;101239.69;;;21.18;69.26
60307;BME280;46155;52.364;6.580;2023-07-20T13:01:38;101231.16;;;21.35;68.80
60307;BME280;46155;52.364;6.580;2023-07-20T13:04:03;101241.00;;;21.37;65.47
60307;BME280;46155;52.364;6.580;2023-07-20T13:06:29;101227.47;;;21.28;62.61
60307;BME280;46155;52.364;6.580;2023-07-20T13:08:54;101235.13;;;21.14;62.16
60307;BME280;46155;52.364;6.580;2023-07-20T13:11:21;101234.25;;;21.15;63.65
60307;BME280;46155;52.364;6.580;2023-07-20T13:13:47;101231.63;;;21.17;65.25
60307;BME280;46155;52.364;6.580;2023-07-20T13:16:13;101234.03;;;21.06;62.90
60307;BME280;46155;52.364;6.580;2023-07-20T13:18:40;101219.44;;;20.91;63.76
60307;BME280;46155;52.364;6.580;2023-07-20T13:21:05;101221.34;;;20.95;64.80
60307;BME280;46155;52.364;6.580;2023-07-20T13:23:35;101219.53;;;20.94;64.41
60307;BME280;46155;52.364;6.580;2023-07-20T13:26:00;101223.94;;;20.92;64.15
60307;BME280;46155;52.364;6.580;2023-07-20T13:28:26;101220.38;;;20.93;65.29
60307;BME280;46155;52.364;6.580;2023-07-20T13:30:51;101228.41;;;20.95;65.19
60307;BME280;46155;52.364;6.580;2023-07-20T13:33:17;101221.41;;;20.98;63.81
60307;BME280;46155;52.364;6.580;2023-07-20T13:35:42;101221.41;;;20.98;64.92
60307;BME280;46155;52.364;6.580;2023-07-20T13:38:08;101223.28;;;21.03;67.33
60307;BME280;46155;52.364;6.580;2023-07-20T13:40:33;101216.97;;;20.99;65.30
60307;BME280;46155;52.364;6.580;2023-07-20T13:42:58;101230.28;;;20.97;66.10
60307;BME280;46155;52.364;6.580;2023-07-20T13:45:24;101219.66;;;21.01;68.27
60307;BME280;46155;52.364;6.580;2023-07-20T13:47:49;101226.75;;;20.98;67.84
60307;BME280;46155;52.364;6.580;2023-07-20T13:50:15;101223.00;;;20.92;67.19
60307;BME280;46155;52.364;6.580;2023-07-20T13:52:40;101219.44;;;20.91;68.22
60307;BME280;46155;52.364;6.580;2023-07-20T13:55:06;101223.78;;;20.88;67.94
60307;BME280;46155;52.364;6.580;2023-07-20T13:57:31;101222.91;;;20.87;67.14
60307;BME280;46155;52.364;6.580;2023-07-20T13:59:57;101216.53;;;20.82;67.76
60307;BME280;46155;52.364;6.580;2023-07-20T14:02:23;101214.81;;;20.84;69.40
60307;BME280;46155;52.364;6.580;2023-07-20T14:04:49;101210.50;;;20.89;69.54
60307;BME280;46155;52.364;6.580;2023-07-20T14:07:14;101208.72;;;20.88;66.68
60307;BME280;46155;52.364;6.580;2023-07-20T14:09:39;101199.06;;;20.95;67.53
60307;BME280;46155;52.364;6.580;2023-07-20T14:12:05;101200.13;;;21.02;67.06
60307;BME280;46155;52.364;6.580;2023-07-20T14:14:30;101194.84;;;21.05;67.32
60307;BME280;46155;52.364;6.580;2023-07-20T14:16:56;101192.97;;;21.01;66.25
60307;BME280;46155;52.364;6.580;2023-07-20T14:19:22;101190.28;;;20.99;66.19
60307;BME280;46155;52.364;6.580;2023-07-20T14:21:47;101195.69;;;21.02;66.89
60307;BME280;46155;52.364;6.580;2023-07-20T14:24:12;101189.50;;;21.05;67.60
60307;BME280;46155;52.364;6.580;2023-07-20T14:26:38;101187.94;;;21.13;68.99
60307;BME280;46155;52.364;6.580;2023-07-20T14:29:03;101185.19;;;21.10;65.49
60307;BME280;46155;52.364;6.580;2023-07-20T14:31:28;101182.97;;;20.92;63.30
60307;BME280;46155;52.364;6.580;2023-07-20T14:33:54;101180.50;;;21.00;67.05
60307;BME280;46155;52.364;6.580;2023-07-20T14:36:19;101183.22;;;21.01;64.87
60307;BME280;46155;52.364;6.580;2023-07-20T14:38:45;101177.88;;;21.01;64.51
60307;BME280;46155;52.364;6.580;2023-07-20T14:41:11;101171.91;;;21.13;68.85
60307;BME280;46155;52.364;6.580;2023-07-20T14:43:37;101171.84;;;21.10;65.86
60307;BME280;46155;52.364;6.580;2023-07-20T14:46:03;101176.06;;;21.00;65.83
60307;BME280;46155;52.364;6.580;2023-07-20T14:48:29;101169.72;;;20.95;63.54
60307;BME280;46155;52.364;6.580;2023-07-20T14:50:54;101159.81;;;20.91;64.30
60307;BME280;46155;52.364;6.580;2023-07-20T14:53:19;101158.63;;;20.78;61.02
60307;BME280;46155;52.364;6.580;2023-07-20T14:55:45;101159.25;;;20.68;62.88
60307;BME280;46155;52.364;6.580;2023-07-20T14:58:10;101165.84;;;20.82;65.64
60307;BME280;46155;52.364;6.580;2023-07-20T15:00:36;101168.66;;;20.87;64.04
60307;BME280;46155;52.364;6.580;2023-07-20T15:03:02;101164.34;;;20.93;62.66
60307;BME280;46155;52.364;6.580;2023-07-20T15:05:28;101159.81;;;20.91;61.17
60307;BME280;46155;52.364;6.580;2023-07-20T15:07:53;101153.66;;;20.93;60.71
60307;BME280;46155;52.364;6.580;2023-07-20T15:10:19;101161.66;;;20.93;60.90
60307;BME280;46155;52.364;6.580;2023-07-20T15:12:45;101159.16;;;21.00;61.63
60307;BME280;46155;52.364;6.580;2023-07-20T15:15:12;101162.69;;;20.98;62.61
60307;BME280;46155;52.364;6.580;2023-07-20T15:17:39;101158.09;;;20.93;60.73
60307;BME280;46155;52.364;6.580;2023-07-20T15:20:06;101154.81;;;21.05;64.21
60307;BME280;46155;52.364;6.580;2023-07-20T15:22:33;101156.81;;;21.15;64.65
60307;BME280;46155;52.364;6.580;2023-07-20T15:24:58;101151.56;;;21.17;66.43
60307;BME280;46155;52.364;6.580;2023-07-20T15:27:24;101155.25;;;21.23;68.04
60307;BME280;46155;52.364;6.580;2023-07-20T15:29:49;101151.81;;;21.29;66.90
60307;BME280;46155;52.364;6.580;2023-07-20T15:32:17;101149.25;;;21.33;67.42
60307;BME280;46155;52.364;6.580;2023-07-20T15:34:43;101137.63;;;21.31;67.48
60307;BME280;46155;52.364;6.580;2023-07-20T15:37:09;101149.25;;;21.33;67.33
60307;BME280;46155;52.364;6.580;2023-07-20T15:39:35;101143.69;;;21.24;63.01
60307;BME280;46155;52.364;6.580;2023-07-20T15:42:01;101149.78;;;21.17;61.74
60307;BME280;46155;52.364;6.580;2023-07-20T15:44:26;101140.97;;;21.21;65.52
60307;BME280;46155;52.364;6.580;2023-07-20T15:46:51;101141.75;;;21.17;61.31
60307;BME280;46155;52.364;6.580;2023-07-20T15:49:17;101142.47;;;21.08;60.10
60307;BME280;46155;52.364;6.580;2023-07-20T15:51:42;101142.22;;;20.99;60.60